createdAt,value
2022-08-11T00:00:09.360Z,44.22
2022-08-11T00:02:41.434Z,43.93
2022-08-11T00:05:13.892Z,44.63
2022-08-11T00:07:48.745Z,44.80
2022-08-11T00:10:20.915Z,45.17
2022-08-11T00:12:58.685Z,45.08
2022-08-11T00:15:31.185Z,44.71
2022-08-11T00:18:02.829Z,44.82
2022-08-11T00:20:35.537Z,45.55
2022-08-11T00:23:09.110Z,46.11
2022-08-11T00:25:42.884Z,45.80
2022-08-11T00:28:32.401Z,46.30
2022-08-11T00:31:05.765Z,45.94
2022-08-11T00:33:44.168Z,46.07
2022-08-11T00:36:21.995Z,46.26
2022-08-11T00:38:57.124Z,45.98
2022-08-11T00:41:35.975Z,46.65
2022-08-11T00:44:17.880Z,46.34
2022-08-11T00:46:59.042Z,46.78
2022-08-11T00:49:46.155Z,46.77
2022-08-11T00:52:25.998Z,47.41
2022-08-11T00:55:20.553Z,47.02
2022-08-11T00:58:26.379Z,47.13
2022-08-11T01:01:13.254Z,47.26
2022-08-11T01:04:03.280Z,47.84
2022-08-11T01:06:55.640Z,47.47
2022-08-11T01:09:36.539Z,47.52
2022-08-11T01:12:35.763Z,47.82
2022-08-11T01:15:56.012Z,47.49
2022-08-11T01:18:58.594Z,47.51
2022-08-11T01:22:09.793Z,48.51
2022-08-11T01:25:04.021Z,48.17
2022-08-11T01:28:11.741Z,49.04
2022-08-11T01:31:13.505Z,49.77
2022-08-11T01:34:28.009Z,49.21
2022-08-11T01:37:18.788Z,48.64
2022-08-11T01:40:17.748Z,50.06
2022-08-11T01:43:36.790Z,49.32
2022-08-11T01:46:12.727Z,49.43
2022-08-11T01:48:46.066Z,49.13
2022-08-11T01:51:25.756Z,49.90
2022-08-11T01:54:06.876Z,49.43
2022-08-11T01:56:47.593Z,49.07
2022-08-11T01:59:23.367Z,49.61
2022-08-11T02:02:44.922Z,48.85
2022-08-11T02:05:26.120Z,49.04
2022-08-11T02:08:02.914Z,48.78
2022-08-11T02:11:04.984Z,49.32
2022-08-11T02:13:44.932Z,49.43
2022-08-11T02:16:30.103Z,49.71
2022-08-11T02:19:26.663Z,49.26
2022-08-11T02:22:15.554Z,50.37
2022-08-11T02:24:52.619Z,50.83
2022-08-11T02:27:28.687Z,51.17
2022-08-11T02:30:07.650Z,51.41
2022-08-11T02:32:54.817Z,51.25
2022-08-11T02:35:36.912Z,51.76
2022-08-11T02:38:17.421Z,51.59
2022-08-11T02:40:52.283Z,51.51
2022-08-11T02:43:50.983Z,51.75
2022-08-11T02:46:30.340Z,51.31
2022-08-11T02:49:20.736Z,51.15
2022-08-11T02:52:08.860Z,52.14
2022-08-11T02:54:47.535Z,52.58
2022-08-11T02:57:25.343Z,52.39
2022-08-11T03:00:07.646Z,52.58
2022-08-11T03:02:55.981Z,53.42
2022-08-11T03:05:34.663Z,52.95
2022-08-11T03:08:39.976Z,53.18
2022-08-11T03:11:27.756Z,53.10
2022-08-11T03:14:23.558Z,53.25
2022-08-11T03:17:03.374Z,53.04
2022-08-11T03:19:39.805Z,53.82
2022-08-11T03:22:20.024Z,52.93
2022-08-11T03:25:03.493Z,53.10
2022-08-11T03:27:51.594Z,53.18
2022-08-11T03:30:26.753Z,53.12
2022-08-11T03:33:23.708Z,54.41
2022-08-11T03:36:14.089Z,53.63
2022-08-11T03:39:10.767Z,53.29
2022-08-11T03:42:01.133Z,53.78
2022-08-11T03:45:04.211Z,52.57
2022-08-11T03:47:55.257Z,53.57
2022-08-11T03:51:01.174Z,54.01
2022-08-11T03:53:50.748Z,53.72
2022-08-11T03:56:47.309Z,55.07
2022-08-11T03:59:42.663Z,53.24
2022-08-11T04:02:30.278Z,54.29
2022-08-11T04:05:33.847Z,54.85
2022-08-11T04:08:34.683Z,54.35
2022-08-11T04:11:23.498Z,54.93
2022-08-11T04:14:25.614Z,55.28
2022-08-11T04:17:22.861Z,54.22
2022-08-11T04:20:32.624Z,53.91
2022-08-11T04:24:13.119Z,54.13
2022-08-11T04:26:39.450Z,53.81
2022-08-11T04:29:21.859Z,53.85
2022-08-11T04:32:10.754Z,53.70
2022-08-11T04:34:51.217Z,53.88
2022-08-11T04:37:51.375Z,54.11
2022-08-11T04:40:50.218Z,54.45
2022-08-11T04:44:02.486Z,54.49
2022-08-11T04:46:59.229Z,54.10
2022-08-11T04:49:58.677Z,55.09
2022-08-11T04:53:11.700Z,56.03
2022-08-11T04:56:19.032Z,55.49
2022-08-11T04:59:20.259Z,55.62
2022-08-11T05:02:17.743Z,56.39
2022-08-11T05:05:18.696Z,56.63
2022-08-11T05:08:21.933Z,55.39
2022-08-11T05:11:06.285Z,54.44
2022-08-11T05:13:50.230Z,54.67
2022-08-11T05:16:43.104Z,54.54
2022-08-11T05:19:32.080Z,53.34
2022-08-11T05:22:14.864Z,53.69
2022-08-11T05:25:01.979Z,54.11
2022-08-11T05:27:51.622Z,53.82
2022-08-11T05:30:34.765Z,52.88
2022-08-11T05:33:24.503Z,52.26
2022-08-11T05:36:04.956Z,52.16
2022-08-11T05:38:51.400Z,51.79
2022-08-11T05:41:36.217Z,51.27
2022-08-11T05:44:22.246Z,50.91
2022-08-11T05:47:05.998Z,50.86
2022-08-11T05:49:51.754Z,51.89
2022-08-11T05:52:38.369Z,50.87
2022-08-11T05:55:26.074Z,50.75
2022-08-11T05:57:59.693Z,50.35
2022-08-11T06:00:29.988Z,50.29
2022-08-11T06:03:04.175Z,50.80
2022-08-11T06:05:43.841Z,50.31
2022-08-11T06:08:15.501Z,50.32
2022-08-11T06:10:47.045Z,50.81
2022-08-11T06:13:19.214Z,51.14
2022-08-11T06:15:52.102Z,50.80
2022-08-11T06:18:22.798Z,51.14
2022-08-11T06:20:58.156Z,51.10
2022-08-11T06:23:36.531Z,50.66
2022-08-11T06:26:12.714Z,50.38
2022-08-11T06:28:45.263Z,50.19
2022-08-11T06:31:17.113Z,49.29
2022-08-11T06:34:01.826Z,49.10
2022-08-11T06:36:38.899Z,48.82
2022-08-11T06:39:20.435Z,47.89
2022-08-11T06:41:55.976Z,47.43
2022-08-11T06:44:33.028Z,46.96
2022-08-11T06:47:11.142Z,46.42
2022-08-11T06:49:59.648Z,45.67
2022-08-11T06:52:36.680Z,44.31
2022-08-11T06:55:56.029Z,44.15
2022-08-11T06:58:14.352Z,43.42
2022-08-11T07:00:45.037Z,42.33
2022-08-11T07:03:19.747Z,40.85
2022-08-11T07:05:55.147Z,40.48
2022-08-11T07:09:19.230Z,40.07
2022-08-11T07:12:17.893Z,39.51
2022-08-11T07:15:05.766Z,39.76
2022-08-11T07:17:40.861Z,38.56
2022-08-11T07:20:26.004Z,37.90
2022-08-11T07:23:11.657Z,37.43
2022-08-11T07:25:56.970Z,36.99
2022-08-11T07:28:44.704Z,36.15
2022-08-11T07:31:17.870Z,36.55
2022-08-11T07:34:05.919Z,36.12
2022-08-11T07:36:43.047Z,35.44
2022-08-11T07:39:19.898Z,35.77
2022-08-11T07:41:50.343Z,34.43
2022-08-11T07:44:30.713Z,34.39
2022-08-11T07:47:16.325Z,33.94
2022-08-11T07:50:01.127Z,33.02
2022-08-11T07:52:34.250Z,33.00
2022-08-11T07:55:06.078Z,32.47
2022-08-11T07:58:14.304Z,32.08
2022-08-11T08:01:01.191Z,32.64
2022-08-11T08:03:54.400Z,33.04
2022-08-11T08:06:38.445Z,32.81
2022-08-11T08:09:23.407Z,32.30
2022-08-11T08:12:05.841Z,32.45
2022-08-11T08:14:49.375Z,32.62
2022-08-11T08:17:34.990Z,32.58
2022-08-11T08:20:07.494Z,31.81
2022-08-11T08:22:40.083Z,31.81
2022-08-11T08:25:12.184Z,31.47
2022-08-11T08:27:43.781Z,31.27
2022-08-11T08:30:27.975Z,31.45
2022-08-11T08:33:01.451Z,30.69
2022-08-11T08:35:33.076Z,31.21
2022-08-11T08:38:03.694Z,30.59
2022-08-11T08:40:34.113Z,30.93
2022-08-11T08:43:10.403Z,30.61
2022-08-11T08:45:43.008Z,31.11
2022-08-11T08:48:20.879Z,30.47
2022-08-11T08:51:12.044Z,29.65
2022-08-11T08:53:52.627Z,30.03
2022-08-11T08:56:31.616Z,30.13
2022-08-11T08:59:03.991Z,30.42
2022-08-11T09:01:39.831Z,30.80
2022-08-11T09:04:17.441Z,30.49
2022-08-11T09:06:52.353Z,30.65
2022-08-11T09:09:24.477Z,30.05
2022-08-11T09:11:56.196Z,29.75
2022-08-11T09:14:48.057Z,30.03
2022-08-11T09:17:18.206Z,29.93
2022-08-11T09:19:56.470Z,29.86
2022-08-11T09:22:39.812Z,30.16
2022-08-11T09:25:23.451Z,29.66
2022-08-11T09:27:53.952Z,30.28
2022-08-11T09:30:26.088Z,29.76
2022-08-11T09:33:00.587Z,29.56
2022-08-11T09:35:36.945Z,29.38
2022-08-11T09:38:21.632Z,28.98
2022-08-11T09:40:57.027Z,28.74
2022-08-11T09:43:40.422Z,29.06
2022-08-11T09:46:11.819Z,29.38
2022-08-11T09:48:45.105Z,28.49
2022-08-11T09:51:18.795Z,28.27
2022-08-11T09:54:04.044Z,28.25
2022-08-11T09:56:47.477Z,28.29
2022-08-11T09:59:17.543Z,28.59
2022-08-11T10:01:50.560Z,28.48
2022-08-11T10:04:23.425Z,28.59
2022-08-11T10:07:04.798Z,28.56
2022-08-11T10:09:41.187Z,27.18
2022-08-11T10:12:14.036Z,27.21
2022-08-11T10:15:00.356Z,26.71
2022-08-11T10:17:33.705Z,26.32
2022-08-11T10:20:07.903Z,26.64
2022-08-11T10:22:53.163Z,27.66
2022-08-11T10:25:36.380Z,26.20
2022-08-11T10:28:28.500Z,26.07
2022-08-11T10:31:12.572Z,26.46
2022-08-11T10:33:59.261Z,26.31
2022-08-11T10:36:30.337Z,26.80
2022-08-11T10:39:04.465Z,25.83
2022-08-11T10:42:08.268Z,25.78
2022-08-11T10:44:42.234Z,25.85
2022-08-11T10:47:27.722Z,25.46
2022-08-11T10:50:11.497Z,24.45
2022-08-11T10:52:55.444Z,24.94
2022-08-11T10:55:41.286Z,25.19
2022-08-11T10:58:25.203Z,25.50
2022-08-11T11:00:57.243Z,24.81
2022-08-11T11:03:29.301Z,25.02
2022-08-11T11:06:27.464Z,24.97
2022-08-11T11:09:04.486Z,24.77
2022-08-11T11:11:53.463Z,24.28
2022-08-11T11:14:46.300Z,24.26
2022-08-11T11:17:38.864Z,24.79
2022-08-11T11:20:34.531Z,24.18
2022-08-11T11:23:06.563Z,24.57
2022-08-11T11:26:06.842Z,24.76
2022-08-11T11:29:01.951Z,24.73
2022-08-11T11:31:47.106Z,24.76
2022-08-11T11:34:26.547Z,24.42
2022-08-11T11:36:59.417Z,25.00
2022-08-11T11:39:31.370Z,24.28
2022-08-11T11:42:04.389Z,24.52
2022-08-11T11:44:39.209Z,24.70
2022-08-11T11:47:10.393Z,24.06
2022-08-11T11:49:41.362Z,24.52
2022-08-11T11:52:11.846Z,24.29
2022-08-11T11:54:43.749Z,23.75
2022-08-11T11:57:29.997Z,24.00
2022-08-11T12:00:15.134Z,23.67
2022-08-11T12:02:45.893Z,23.92
2022-08-11T12:05:16.425Z,24.24
2022-08-11T12:08:12.505Z,23.77
2022-08-11T12:10:44.414Z,23.74
2022-08-11T12:13:28.051Z,24.07
2022-08-11T12:16:32.123Z,23.31
2022-08-11T12:18:56.584Z,23.79
2022-08-11T12:21:27.291Z,23.51
2022-08-11T12:24:11.664Z,23.87
2022-08-11T12:27:16.067Z,24.13
2022-08-11T12:29:48.130Z,23.83
2022-08-11T12:32:24.506Z,22.74
2022-08-11T12:34:57.049Z,22.94
2022-08-11T12:37:33.285Z,23.12
2022-08-11T12:40:42.729Z,23.01
2022-08-11T12:43:37.345Z,22.87
2022-08-11T12:46:11.332Z,22.89
2022-08-11T12:49:02.406Z,22.97
2022-08-11T12:52:13.062Z,22.94
2022-08-11T12:54:49.854Z,22.25
2022-08-11T12:57:36.572Z,22.70
2022-08-11T13:00:29.927Z,22.77
2022-08-11T13:03:13.254Z,22.76
2022-08-11T13:05:46.419Z,23.12
2022-08-11T13:08:17.646Z,23.09
2022-08-11T13:11:01.278Z,22.83
2022-08-11T13:13:53.994Z,23.07
2022-08-11T13:16:23.234Z,23.19
2022-08-11T13:18:54.469Z,22.75
2022-08-11T13:21:27.774Z,22.56
2022-08-11T13:24:01.294Z,22.83
2022-08-11T13:26:49.757Z,22.49
2022-08-11T13:29:25.282Z,22.47
2022-08-11T13:31:57.146Z,22.95
2022-08-11T13:34:31.353Z,23.09
2022-08-11T13:37:05.419Z,23.08
2022-08-11T13:39:37.530Z,23.48
2022-08-11T13:42:08.749Z,23.16
2022-08-11T13:44:40.765Z,22.60
2022-08-11T13:47:13.339Z,22.62
2022-08-11T13:49:44.665Z,22.89
2022-08-11T13:52:19.429Z,22.86
2022-08-11T13:54:53.367Z,23.27
2022-08-11T13:58:08.755Z,23.03
2022-08-11T14:00:25.112Z,23.23
2022-08-11T14:02:59.922Z,22.37
2022-08-11T14:05:34.288Z,22.86
2022-08-11T14:08:38.253Z,22.55
2022-08-11T14:12:21.149Z,22.86
2022-08-11T14:14:13.219Z,22.99
2022-08-11T14:16:46.033Z,22.46
2022-08-11T14:19:18.689Z,22.37
2022-08-11T14:22:07.100Z,22.51
2022-08-11T14:24:42.704Z,23.15
2022-08-11T14:28:30.117Z,23.19
2022-08-11T14:30:27.411Z,22.45
2022-08-11T14:32:59.924Z,23.48
2022-08-11T14:35:31.715Z,23.09
2022-08-11T14:38:05.456Z,22.77
2022-08-11T14:40:51.259Z,22.92
2022-08-11T14:44:12.586Z,22.93
2022-08-11T14:46:35.925Z,22.79
2022-08-11T14:49:05.980Z,23.14
2022-08-11T14:51:36.695Z,22.58
2022-08-11T14:54:19.192Z,23.00
2022-08-11T14:56:53.246Z,23.14
2022-08-11T14:59:26.132Z,22.81
2022-08-11T15:02:08.343Z,23.04
2022-08-11T15:04:38.267Z,23.23
2022-08-11T15:07:17.062Z,23.10
2022-08-11T15:12:44.282Z,23.18
2022-08-11T15:15:28.047Z,23.16
2022-08-11T15:17:59.923Z,23.15
2022-08-11T15:20:53.775Z,23.33
2022-08-11T15:23:36.383Z,23.45
2022-08-11T15:26:11.307Z,23.40
2022-08-11T15:29:01.833Z,23.37
2022-08-11T15:31:49.112Z,23.93
2022-08-11T15:34:35.370Z,23.45
2022-08-11T15:37:22.472Z,23.02
2022-08-11T15:40:07.405Z,23.56
2022-08-11T15:43:15.488Z,23.79
2022-08-11T15:45:55.113Z,23.64
2022-08-11T15:48:32.917Z,23.29
2022-08-11T15:51:10.103Z,23.38
2022-08-11T15:53:45.363Z,23.62
2022-08-11T15:56:28.931Z,23.92
2022-08-11T15:59:41.101Z,23.85
2022-08-11T16:02:20.233Z,24.44
2022-08-11T16:04:50.781Z,24.75
2022-08-11T16:07:26.740Z,24.95
2022-08-11T16:10:04.889Z,24.87
2022-08-11T16:12:38.752Z,24.87
2022-08-11T16:15:24.521Z,24.28
2022-08-11T16:18:02.192Z,24.83
2022-08-11T16:20:33.404Z,24.95
2022-08-11T16:23:07.547Z,24.73
2022-08-11T16:26:38.023Z,24.82
2022-08-11T16:28:30.415Z,24.61
2022-08-11T16:31:00.690Z,24.55
2022-08-11T16:33:50.379Z,24.81
2022-08-11T16:36:35.742Z,25.02
2022-08-11T16:39:06.269Z,25.07
2022-08-11T16:41:50.905Z,25.12
2022-08-11T16:44:37.595Z,25.14
2022-08-11T16:47:09.971Z,25.61
2022-08-11T16:49:52.204Z,25.76
2022-08-11T16:52:24.044Z,25.81
2022-08-11T16:54:54.583Z,26.11
2022-08-11T16:57:40.293Z,25.85
2022-08-11T17:00:13.238Z,26.13
2022-08-11T17:03:01.086Z,26.40
2022-08-11T17:05:53.983Z,26.41
2022-08-11T17:08:41.360Z,25.66
2022-08-11T17:11:34.594Z,25.63
2022-08-11T17:14:10.569Z,26.20
2022-08-11T17:16:42.889Z,26.01
2022-08-11T17:19:16.541Z,25.56
2022-08-11T17:22:03.761Z,26.09
2022-08-11T17:24:36.896Z,25.84
2022-08-11T17:27:08.919Z,26.25
2022-08-11T17:29:54.369Z,26.47
2022-08-11T17:32:55.938Z,26.16
2022-08-11T17:35:38.934Z,27.43
2022-08-11T17:38:15.354Z,26.57
2022-08-11T17:41:08.796Z,27.50
2022-08-11T17:43:52.091Z,26.36
2022-08-11T17:46:35.475Z,26.60
2022-08-11T17:49:07.819Z,26.34
2022-08-11T17:51:51.852Z,26.36
2022-08-11T17:54:38.301Z,26.67
2022-08-11T17:57:25.530Z,26.51
2022-08-11T17:59:57.922Z,26.62
2022-08-11T18:02:44.145Z,27.67
2022-08-11T18:05:15.539Z,27.96
2022-08-11T18:07:59.016Z,27.79
2022-08-11T18:10:46.289Z,28.78
2022-08-11T18:13:28.922Z,28.89
2022-08-11T18:16:11.444Z,29.74
2022-08-11T18:18:53.575Z,29.50
2022-08-11T18:21:37.298Z,29.76
2022-08-11T18:24:24.678Z,30.23
2022-08-11T18:27:12.258Z,30.46
2022-08-11T18:29:56.451Z,30.66
2022-08-11T18:32:49.618Z,30.76
2022-08-11T18:35:34.080Z,31.26
2022-08-11T18:38:18.421Z,30.63
2022-08-11T18:41:03.810Z,30.61
2022-08-11T18:43:52.698Z,30.58
2022-08-11T18:46:37.945Z,30.95
2022-08-11T18:49:27.229Z,31.36
2022-08-11T18:52:30.683Z,31.67
2022-08-11T18:55:16.016Z,31.74
2022-08-11T18:58:01.971Z,31.26
2022-08-11T19:00:49.611Z,31.20
2022-08-11T19:03:32.453Z,31.00
2022-08-11T19:06:39.463Z,30.97
2022-08-11T19:09:25.511Z,30.89
2022-08-11T19:12:10.269Z,30.15
2022-08-11T19:14:55.222Z,30.23
2022-08-11T19:17:44.370Z,30.81
2022-08-11T19:20:31.644Z,29.96
2022-08-11T19:23:15.445Z,29.61
2022-08-11T19:25:58.947Z,30.34
2022-08-11T19:28:41.924Z,29.64
2022-08-11T19:31:25.074Z,29.07
2022-08-11T19:34:11.399Z,29.40
2022-08-11T19:36:54.690Z,29.54
2022-08-11T19:39:39.362Z,29.31
2022-08-11T19:42:23.545Z,29.40
2022-08-11T19:45:06.268Z,29.76
2022-08-11T19:47:49.307Z,29.17
2022-08-11T19:50:37.816Z,29.58
2022-08-11T19:53:22.623Z,29.32
2022-08-11T19:56:08.230Z,29.35
2022-08-11T19:58:51.588Z,30.19
2022-08-11T20:01:33.887Z,30.90
2022-08-11T20:04:16.114Z,31.58
2022-08-11T20:07:01.438Z,31.12
2022-08-11T20:10:04.846Z,31.99
2022-08-11T20:12:47.553Z,32.59
2022-08-11T20:15:31.725Z,32.10
2022-08-11T20:18:15.209Z,32.94
2022-08-11T20:20:57.437Z,33.28
2022-08-11T20:23:42.883Z,33.85
2022-08-11T20:26:31.142Z,33.81
2022-08-11T20:29:15.473Z,33.95
2022-08-11T20:31:58.236Z,34.38
2022-08-11T20:34:40.562Z,34.34
2022-08-11T20:37:23.553Z,34.75
2022-08-11T20:40:11.072Z,34.63
2022-08-11T20:42:54.577Z,35.16
2022-08-11T20:45:37.666Z,35.26
2022-08-11T20:48:38.151Z,35.10
2022-08-11T20:51:21.288Z,35.51
2022-08-11T20:54:05.705Z,35.89
2022-08-11T20:56:51.512Z,36.02
2022-08-11T20:59:49.385Z,36.46
2022-08-11T21:02:39.659Z,36.31
2022-08-11T21:06:09.547Z,36.15
2022-08-11T21:08:25.756Z,36.88
2022-08-11T21:11:09.914Z,36.57
2022-08-11T21:13:58.927Z,35.70
2022-08-11T21:16:45.841Z,33.25
2022-08-11T21:19:59.688Z,32.97
2022-08-11T21:22:59.484Z,34.02
2022-08-11T21:25:52.339Z,34.21
2022-08-11T21:28:35.893Z,34.84
2022-08-11T21:31:22.519Z,35.67
2022-08-11T21:34:06.094Z,35.52
2022-08-11T21:36:49.436Z,36.53
2022-08-11T21:39:35.074Z,36.32
2022-08-11T21:42:18.425Z,36.27
2022-08-11T21:45:00.927Z,36.71
2022-08-11T21:47:47.160Z,36.61
2022-08-11T21:50:29.404Z,36.53
2022-08-11T21:53:13.727Z,36.82
2022-08-11T21:55:56.674Z,36.30
2022-08-11T21:58:40.468Z,36.45
2022-08-11T22:01:24.433Z,36.53
2022-08-11T22:04:09.999Z,36.46
2022-08-11T22:06:53.176Z,36.45
2022-08-11T22:09:35.319Z,37.77
2022-08-11T22:12:34.352Z,37.63
2022-08-11T22:15:18.895Z,37.90
2022-08-11T22:18:01.045Z,37.64
2022-08-11T22:20:47.501Z,37.37
2022-08-11T22:23:36.140Z,38.01
2022-08-11T22:26:19.407Z,38.09
2022-08-11T22:29:01.625Z,37.96
2022-08-11T22:31:45.558Z,37.44
2022-08-11T22:34:28.733Z,37.58
2022-08-11T22:37:27.587Z,36.85
2022-08-11T22:40:11.369Z,36.88
2022-08-11T22:42:53.675Z,36.80
2022-08-11T22:45:36.634Z,36.68
2022-08-11T22:48:20.736Z,36.78
2022-08-11T22:51:03.134Z,36.73
2022-08-11T22:53:55.179Z,37.27
2022-08-11T22:56:41.572Z,37.44
2022-08-11T22:59:24.629Z,37.61
2022-08-11T23:02:07.304Z,37.79
2022-08-11T23:04:53.264Z,37.90
2022-08-11T23:07:51.406Z,37.82
2022-08-11T23:10:37.701Z,38.06
2022-08-11T23:13:22.328Z,38.34
2022-08-11T23:16:05.563Z,38.00
2022-08-11T23:18:48.027Z,38.62
2022-08-11T23:21:31.497Z,38.27
2022-08-11T23:24:15.306Z,38.59
2022-08-11T23:27:01.029Z,38.79
2022-08-11T23:29:44.149Z,38.63
2022-08-11T23:32:26.491Z,38.87
2022-08-11T23:35:38.629Z,39.15
2022-08-11T23:38:14.843Z,39.03
2022-08-11T23:40:57.083Z,38.92
2022-08-11T23:43:41.920Z,39.75
2022-08-11T23:46:24.382Z,39.24
2022-08-11T23:49:10.899Z,39.74
2022-08-11T23:51:54.750Z,39.84
2022-08-11T23:54:37.680Z,39.81
2022-08-11T23:57:20.416Z,39.97
